sensor_id;sensor_type;location;lat;lon;timestamp;P1;durP1;ratioP1;P2;durP2;ratioP2
19643;SDS011;9970;-36.854;174.870;2022-11-11T00:01:33;0.90;;;0.90;;
19643;SDS011;9970;-36.854;174.870;2022-11-11T00:04:06;0.87;;;0.87;;
19643;SDS011;9970;-36.854;174.870;2022-11-11T00:06:39;1.00;;;1.00;;
19643;SDS011;9970;-36.854;174.870;2022-11-11T00:09:12;1.00;;;1.00;;
19643;SDS011;9970;-36.854;174.870;2022-11-11T00:11:45;1.00;;;1.00;;
19643;SDS011;9970;-36.854;174.870;2022-11-11T00:14:18;0.90;;;0.90;;
19643;SDS011;9970;-36.854;174.870;2022-11-11T00:16:51;1.00;;;1.00;;
19643;SDS011;9970;-36.854;174.870;2022-11-11T00:19:41;1.00;;;1.00;;
19643;SDS011;9970;-36.854;174.870;2022-11-11T00:22:32;0.90;;;0.90;;
19643;SDS011;9970;-36.854;174.870;2022-11-11T00:25:22;1.00;;;1.00;;
19643;SDS011;9970;-36.854;174.870;2022-11-11T00:27:56;1.00;;;1.00;;
19643;SDS011;9970;-36.854;174.870;2022-11-11T00:30:28;1.00;;;1.00;;
19643;SDS011;9970;-36.854;174.870;2022-11-11T00:33:06;1.10;;;1.10;;
19643;SDS011;9970;-36.854;174.870;2022-11-11T00:35:39;1.00;;;1.00;;
19643;SDS011;9970;-36.854;174.870;2022-11-11T00:38:24;1.20;;;1.20;;
19643;SDS011;9970;-36.854;174.870;2022-11-11T00:41:17;1.10;;;1.10;;
19643;SDS011;9970;-36.854;174.870;2022-11-11T00:43:51;1.00;;;1.00;;
19643;SDS011;9970;-36.854;174.870;2022-11-11T00:46:24;1.00;;;1.00;;
19643;SDS011;9970;-36.854;174.870;2022-11-11T00:49:15;1.10;;;1.10;;
19643;SDS011;9970;-36.854;174.870;2022-11-11T00:52:05;1.10;;;1.10;;
19643;SDS011;9970;-36.854;174.870;2022-11-11T00:54:38;1.00;;;1.00;;
19643;SDS011;9970;-36.854;174.870;2022-11-11T00:57:11;1.10;;;1.10;;
19643;SDS011;9970;-36.854;174.870;2022-11-11T00:59:44;1.00;;;1.00;;
19643;SDS011;9970;-36.854;174.870;2022-11-11T01:02:17;1.10;;;1.10;;
19643;SDS011;9970;-36.854;174.870;2022-11-11T01:04:50;1.00;;;1.00;;
19643;SDS011;9970;-36.854;174.870;2022-11-11T01:07:23;1.10;;;1.10;;
19643;SDS011;9970;-36.854;174.870;2022-11-11T01:09:56;1.20;;;1.20;;
19643;SDS011;9970;-36.854;174.870;2022-11-11T01:12:29;1.10;;;1.10;;
19643;SDS011;9970;-36.854;174.870;2022-11-11T01:15:02;1.10;;;1.10;;
19643;SDS011;9970;-36.854;174.870;2022-11-11T01:17:36;1.20;;;1.20;;
19643;SDS011;9970;-36.854;174.870;2022-11-11T01:20:09;1.10;;;1.10;;
19643;SDS011;9970;-36.854;174.870;2022-11-11T01:22:42;1.10;;;1.10;;
19643;SDS011;9970;-36.854;174.870;2022-11-11T01:25:16;1.10;;;1.10;;
19643;SDS011;9970;-36.854;174.870;2022-11-11T01:27:49;1.00;;;1.00;;
19643;SDS011;9970;-36.854;174.870;2022-11-11T01:30:21;1.07;;;1.07;;
19643;SDS011;9970;-36.854;174.870;2022-11-11T01:32:54;1.00;;;1.00;;
19643;SDS011;9970;-36.854;174.870;2022-11-11T01:35:27;1.00;;;1.00;;
19643;SDS011;9970;-36.854;174.870;2022-11-11T01:38:00;1.00;;;1.00;;
19643;SDS011;9970;-36.854;174.870;2022-11-11T01:40:40;0.90;;;0.90;;
19643;SDS011;9970;-36.854;174.870;2022-11-11T01:43:16;1.00;;;1.00;;
19643;SDS011;9970;-36.854;174.870;2022-11-11T01:45:55;1.10;;;1.10;;
19643;SDS011;9970;-36.854;174.870;2022-11-11T01:48:34;1.20;;;1.20;;
19643;SDS011;9970;-36.854;174.870;2022-11-11T01:51:37;1.10;;;1.10;;
19643;SDS011;9970;-36.854;174.870;2022-11-11T01:55:01;1.10;;;1.10;;
19643;SDS011;9970;-36.854;174.870;2022-11-11T01:56:59;1.20;;;1.20;;
19643;SDS011;9970;-36.854;174.870;2022-11-11T01:59:42;1.30;;;1.30;;
19643;SDS011;9970;-36.854;174.870;2022-11-11T02:02:21;1.30;;;1.30;;
19643;SDS011;9970;-36.854;174.870;2022-11-11T02:04:55;1.30;;;1.30;;
19643;SDS011;9970;-36.854;174.870;2022-11-11T02:07:46;1.20;;;1.20;;
19643;SDS011;9970;-36.854;174.870;2022-11-11T02:10:21;1.20;;;1.20;;
19643;SDS011;9970;-36.854;174.870;2022-11-11T02:12:56;1.20;;;1.20;;
19643;SDS011;9970;-36.854;174.870;2022-11-11T02:15:46;1.20;;;1.20;;
19643;SDS011;9970;-36.854;174.870;2022-11-11T02:18:19;1.30;;;1.30;;
19643;SDS011;9970;-36.854;174.870;2022-11-11T02:20:52;1.30;;;1.30;;
19643;SDS011;9970;-36.854;174.870;2022-11-11T02:23:34;1.20;;;1.20;;
19643;SDS011;9970;-36.854;174.870;2022-11-11T02:26:10;1.20;;;1.20;;
19643;SDS011;9970;-36.854;174.870;2022-11-11T02:29:06;1.20;;;1.20;;
19643;SDS011;9970;-36.854;174.870;2022-11-11T02:31:41;1.20;;;1.20;;
19643;SDS011;9970;-36.854;174.870;2022-11-11T02:34:17;1.20;;;1.20;;
19643;SDS011;9970;-36.854;174.870;2022-11-11T02:36:50;1.20;;;1.20;;
19643;SDS011;9970;-36.854;174.870;2022-11-11T02:39:23;1.10;;;1.10;;
19643;SDS011;9970;-36.854;174.870;2022-11-11T02:41:57;1.20;;;1.20;;
19643;SDS011;9970;-36.854;174.870;2022-11-11T02:44:31;1.10;;;1.10;;
19643;SDS011;9970;-36.854;174.870;2022-11-11T02:47:04;1.10;;;1.10;;
19643;SDS011;9970;-36.854;174.870;2022-11-11T02:49:37;1.20;;;1.20;;
19643;SDS011;9970;-36.854;174.870;2022-11-11T02:52:10;1.20;;;1.20;;
19643;SDS011;9970;-36.854;174.870;2022-11-11T02:54:43;1.20;;;1.20;;
19643;SDS011;9970;-36.854;174.870;2022-11-11T02:57:17;1.20;;;1.20;;
19643;SDS011;9970;-36.854;174.870;2022-11-11T02:59:50;1.10;;;1.10;;
19643;SDS011;9970;-36.854;174.870;2022-11-11T03:02:23;1.17;;;1.17;;
19643;SDS011;9970;-36.854;174.870;2022-11-11T03:04:57;1.20;;;1.20;;
19643;SDS011;9970;-36.854;174.870;2022-11-11T03:07:30;1.20;;;1.20;;
19643;SDS011;9970;-36.854;174.870;2022-11-11T03:10:05;1.20;;;1.20;;
19643;SDS011;9970;-36.854;174.870;2022-11-11T03:12:39;1.20;;;1.20;;
19643;SDS011;9970;-36.854;174.870;2022-11-11T03:15:12;1.20;;;1.20;;
19643;SDS011;9970;-36.854;174.870;2022-11-11T03:17:45;1.20;;;1.20;;
19643;SDS011;9970;-36.854;174.870;2022-11-11T03:20:18;1.20;;;1.20;;
19643;SDS011;9970;-36.854;174.870;2022-11-11T03:23:09;1.20;;;1.20;;
19643;SDS011;9970;-36.854;174.870;2022-11-11T03:25:43;1.30;;;1.30;;
19643;SDS011;9970;-36.854;174.870;2022-11-11T03:28:18;1.20;;;1.20;;
19643;SDS011;9970;-36.854;174.870;2022-11-11T03:30:53;1.20;;;1.20;;
19643;SDS011;9970;-36.854;174.870;2022-11-11T03:33:28;1.20;;;1.20;;
19643;SDS011;9970;-36.854;174.870;2022-11-11T03:36:01;1.20;;;1.20;;
19643;SDS011;9970;-36.854;174.870;2022-11-11T03:38:37;1.27;;;1.27;;
19643;SDS011;9970;-36.854;174.870;2022-11-11T03:41:10;1.10;;;1.10;;
19643;SDS011;9970;-36.854;174.870;2022-11-11T03:43:43;1.00;;;1.00;;
19643;SDS011;9970;-36.854;174.870;2022-11-11T03:46:16;1.10;;;1.10;;
19643;SDS011;9970;-36.854;174.870;2022-11-11T03:48:49;1.10;;;1.10;;
19643;SDS011;9970;-36.854;174.870;2022-11-11T03:51:22;1.10;;;1.10;;
19643;SDS011;9970;-36.854;174.870;2022-11-11T03:53:55;1.10;;;1.10;;
19643;SDS011;9970;-36.854;174.870;2022-11-11T03:56:28;1.10;;;1.10;;
19643;SDS011;9970;-36.854;174.870;2022-11-11T03:59:01;1.10;;;1.10;;
19643;SDS011;9970;-36.854;174.870;2022-11-11T04:01:34;1.00;;;1.00;;
19643;SDS011;9970;-36.854;174.870;2022-11-11T04:04:24;1.00;;;1.00;;
19643;SDS011;9970;-36.854;174.870;2022-11-11T04:07:14;1.10;;;1.10;;
19643;SDS011;9970;-36.854;174.870;2022-11-11T04:10:05;1.00;;;1.00;;
19643;SDS011;9970;-36.854;174.870;2022-11-11T04:12:54;1.07;;;1.07;;
19643;SDS011;9970;-36.854;174.870;2022-11-11T04:15:45;1.00;;;1.00;;
19643;SDS011;9970;-36.854;174.870;2022-11-11T04:18:36;1.10;;;1.10;;
19643;SDS011;9970;-36.854;174.870;2022-11-11T04:21:27;1.00;;;1.00;;
19643;SDS011;9970;-36.854;174.870;2022-11-11T04:24:16;1.03;;;1.03;;
19643;SDS011;9970;-36.854;174.870;2022-11-11T04:27:08;1.10;;;1.10;;
19643;SDS011;9970;-36.854;174.870;2022-11-11T04:29:42;1.20;;;1.20;;
19643;SDS011;9970;-36.854;174.870;2022-11-11T04:32:17;1.10;;;1.10;;
19643;SDS011;9970;-36.854;174.870;2022-11-11T04:35:08;1.10;;;1.10;;
19643;SDS011;9970;-36.854;174.870;2022-11-11T04:37:46;1.10;;;1.10;;
19643;SDS011;9970;-36.854;174.870;2022-11-11T04:40:19;1.00;;;1.00;;
19643;SDS011;9970;-36.854;174.870;2022-11-11T04:43:10;1.10;;;1.10;;
19643;SDS011;9970;-36.854;174.870;2022-11-11T04:45:43;1.10;;;1.10;;
19643;SDS011;9970;-36.854;174.870;2022-11-11T04:48:16;1.10;;;1.10;;
19643;SDS011;9970;-36.854;174.870;2022-11-11T04:50:49;1.00;;;1.00;;
19643;SDS011;9970;-36.854;174.870;2022-11-11T04:53:22;1.00;;;1.00;;
19643;SDS011;9970;-36.854;174.870;2022-11-11T04:55:55;1.00;;;1.00;;
19643;SDS011;9970;-36.854;174.870;2022-11-11T04:58:45;1.00;;;1.00;;
19643;SDS011;9970;-36.854;174.870;2022-11-11T05:01:19;1.00;;;1.00;;
19643;SDS011;9970;-36.854;174.870;2022-11-11T05:04:09;0.90;;;0.90;;
19643;SDS011;9970;-36.854;174.870;2022-11-11T05:06:42;1.00;;;1.00;;
19643;SDS011;9970;-36.854;174.870;2022-11-11T05:09:33;1.00;;;1.00;;
19643;SDS011;9970;-36.854;174.870;2022-11-11T05:12:06;1.00;;;1.00;;
19643;SDS011;9970;-36.854;174.870;2022-11-11T05:14:38;1.00;;;1.00;;
19643;SDS011;9970;-36.854;174.870;2022-11-11T05:17:28;1.00;;;1.00;;
19643;SDS011;9970;-36.854;174.870;2022-11-11T05:20:19;1.00;;;1.00;;
19643;SDS011;9970;-36.854;174.870;2022-11-11T05:23:09;1.00;;;1.00;;
19643;SDS011;9970;-36.854;174.870;2022-11-11T05:25:42;1.00;;;1.00;;
19643;SDS011;9970;-36.854;174.870;2022-11-11T05:28:15;1.00;;;1.00;;
19643;SDS011;9970;-36.854;174.870;2022-11-11T05:30:48;1.00;;;1.00;;
19643;SDS011;9970;-36.854;174.870;2022-11-11T05:33:21;1.00;;;1.00;;
19643;SDS011;9970;-36.854;174.870;2022-11-11T05:35:55;0.97;;;0.97;;
19643;SDS011;9970;-36.854;174.870;2022-11-11T05:38:28;0.90;;;0.90;;
19643;SDS011;9970;-36.854;174.870;2022-11-11T05:41:01;1.00;;;1.00;;
19643;SDS011;9970;-36.854;174.870;2022-11-11T05:43:34;0.97;;;0.97;;
19643;SDS011;9970;-36.854;174.870;2022-11-11T05:46:07;1.00;;;1.00;;
19643;SDS011;9970;-36.854;174.870;2022-11-11T05:48:40;1.00;;;1.00;;
19643;SDS011;9970;-36.854;174.870;2022-11-11T05:51:14;1.00;;;1.00;;
19643;SDS011;9970;-36.854;174.870;2022-11-11T05:53:48;1.00;;;1.00;;
19643;SDS011;9970;-36.854;174.870;2022-11-11T05:56:21;1.00;;;1.00;;
19643;SDS011;9970;-36.854;174.870;2022-11-11T05:58:54;0.90;;;0.90;;
19643;SDS011;9970;-36.854;174.870;2022-11-11T06:01:27;0.90;;;0.90;;
19643;SDS011;9970;-36.854;174.870;2022-11-11T06:04:05;0.97;;;0.97;;
19643;SDS011;9970;-36.854;174.870;2022-11-11T06:06:39;0.90;;;0.90;;
19643;SDS011;9970;-36.854;174.870;2022-11-11T06:09:12;0.90;;;0.90;;
19643;SDS011;9970;-36.854;174.870;2022-11-11T06:11:45;0.90;;;0.90;;
19643;SDS011;9970;-36.854;174.870;2022-11-11T06:14:18;1.00;;;1.00;;
19643;SDS011;9970;-36.854;174.870;2022-11-11T06:16:51;0.90;;;0.90;;
19643;SDS011;9970;-36.854;174.870;2022-11-11T06:19:24;0.90;;;0.90;;
19643;SDS011;9970;-36.854;174.870;2022-11-11T06:21:57;0.90;;;0.90;;
19643;SDS011;9970;-36.854;174.870;2022-11-11T06:24:31;0.90;;;0.90;;
19643;SDS011;9970;-36.854;174.870;2022-11-11T06:27:05;0.90;;;0.90;;
19643;SDS011;9970;-36.854;174.870;2022-11-11T06:29:37;0.90;;;0.90;;
19643;SDS011;9970;-36.854;174.870;2022-11-11T06:32:10;0.90;;;0.90;;
19643;SDS011;9970;-36.854;174.870;2022-11-11T06:34:44;0.80;;;0.80;;
19643;SDS011;9970;-36.854;174.870;2022-11-11T06:37:17;0.80;;;0.80;;
19643;SDS011;9970;-36.854;174.870;2022-11-11T06:39:49;0.90;;;0.90;;
19643;SDS011;9970;-36.854;174.870;2022-11-11T06:42:27;0.90;;;0.90;;
19643;SDS011;9970;-36.854;174.870;2022-11-11T06:45:00;0.90;;;0.90;;
19643;SDS011;9970;-36.854;174.870;2022-11-11T06:47:33;0.87;;;0.87;;
19643;SDS011;9970;-36.854;174.870;2022-11-11T06:50:06;0.80;;;0.80;;
19643;SDS011;9970;-36.854;174.870;2022-11-11T06:52:40;0.90;;;0.90;;
19643;SDS011;9970;-36.854;174.870;2022-11-11T06:55:13;0.90;;;0.90;;
19643;SDS011;9970;-36.854;174.870;2022-11-11T06:57:48;0.80;;;0.80;;
19643;SDS011;9970;-36.854;174.870;2022-11-11T07:00:21;0.90;;;0.90;;
19643;SDS011;9970;-36.854;174.870;2022-11-11T07:02:54;0.90;;;0.90;;
19643;SDS011;9970;-36.854;174.870;2022-11-11T07:05:27;0.90;;;0.90;;
19643;SDS011;9970;-36.854;174.870;2022-11-11T07:08:03;0.90;;;0.90;;
19643;SDS011;9970;-36.854;174.870;2022-11-11T07:10:38;0.90;;;0.90;;
19643;SDS011;9970;-36.854;174.870;2022-11-11T07:13:15;0.80;;;0.80;;
19643;SDS011;9970;-36.854;174.870;2022-11-11T07:15:48;0.80;;;0.80;;
19643;SDS011;9970;-36.854;174.870;2022-11-11T07:18:21;0.90;;;0.90;;
19643;SDS011;9970;-36.854;174.870;2022-11-11T07:20:54;0.80;;;0.80;;
19643;SDS011;9970;-36.854;174.870;2022-11-11T07:23:27;0.83;;;0.83;;
19643;SDS011;9970;-36.854;174.870;2022-11-11T07:26:00;0.80;;;0.80;;
19643;SDS011;9970;-36.854;174.870;2022-11-11T07:28:34;0.80;;;0.80;;
19643;SDS011;9970;-36.854;174.870;2022-11-11T07:31:07;0.80;;;0.80;;
19643;SDS011;9970;-36.854;174.870;2022-11-11T07:33:40;0.80;;;0.80;;
19643;SDS011;9970;-36.854;174.870;2022-11-11T07:36:13;0.80;;;0.80;;
19643;SDS011;9970;-36.854;174.870;2022-11-11T07:38:46;0.80;;;0.80;;
19643;SDS011;9970;-36.854;174.870;2022-11-11T07:41:19;0.80;;;0.80;;
19643;SDS011;9970;-36.854;174.870;2022-11-11T07:43:52;0.80;;;0.80;;
19643;SDS011;9970;-36.854;174.870;2022-11-11T07:46:26;0.80;;;0.80;;
19643;SDS011;9970;-36.854;174.870;2022-11-11T07:48:59;0.80;;;0.80;;
19643;SDS011;9970;-36.854;174.870;2022-11-11T07:51:32;0.80;;;0.80;;
19643;SDS011;9970;-36.854;174.870;2022-11-11T07:54:05;0.80;;;0.80;;
19643;SDS011;9970;-36.854;174.870;2022-11-11T07:56:38;0.80;;;0.80;;
19643;SDS011;9970;-36.854;174.870;2022-11-11T07:59:11;0.80;;;0.80;;
19643;SDS011;9970;-36.854;174.870;2022-11-11T08:01:44;0.80;;;0.80;;
19643;SDS011;9970;-36.854;174.870;2022-11-11T08:04:17;0.80;;;0.80;;
19643;SDS011;9970;-36.854;174.870;2022-11-11T08:06:50;0.80;;;0.80;;
19643;SDS011;9970;-36.854;174.870;2022-11-11T08:09:23;0.80;;;0.80;;
19643;SDS011;9970;-36.854;174.870;2022-11-11T08:11:58;0.90;;;0.90;;
19643;SDS011;9970;-36.854;174.870;2022-11-11T08:14:48;0.80;;;0.80;;
19643;SDS011;9970;-36.854;174.870;2022-11-11T08:17:21;0.80;;;0.80;;
19643;SDS011;9970;-36.854;174.870;2022-11-11T08:19:54;0.80;;;0.80;;
19643;SDS011;9970;-36.854;174.870;2022-11-11T08:22:27;0.80;;;0.80;;
19643;SDS011;9970;-36.854;174.870;2022-11-11T08:25:02;0.80;;;0.80;;
19643;SDS011;9970;-36.854;174.870;2022-11-11T08:27:36;0.80;;;0.80;;
19643;SDS011;9970;-36.854;174.870;2022-11-11T08:30:10;0.80;;;0.80;;
19643;SDS011;9970;-36.854;174.870;2022-11-11T08:32:43;0.80;;;0.80;;
19643;SDS011;9970;-36.854;174.870;2022-11-11T08:35:19;0.80;;;0.80;;
19643;SDS011;9970;-36.854;174.870;2022-11-11T08:37:52;0.80;;;0.80;;
19643;SDS011;9970;-36.854;174.870;2022-11-11T08:40:25;0.80;;;0.80;;
19643;SDS011;9970;-36.854;174.870;2022-11-11T08:42:58;0.80;;;0.80;;
19643;SDS011;9970;-36.854;174.870;2022-11-11T08:45:31;0.80;;;0.80;;
19643;SDS011;9970;-36.854;174.870;2022-11-11T08:48:04;0.87;;;0.87;;
19643;SDS011;9970;-36.854;174.870;2022-11-11T08:50:43;0.80;;;0.80;;
19643;SDS011;9970;-36.854;174.870;2022-11-11T08:53:20;0.80;;;0.80;;
19643;SDS011;9970;-36.854;174.870;2022-11-11T08:55:53;0.80;;;0.80;;
19643;SDS011;9970;-36.854;174.870;2022-11-11T08:58:26;0.80;;;0.80;;
19643;SDS011;9970;-36.854;174.870;2022-11-11T09:00:59;0.80;;;0.80;;
19643;SDS011;9970;-36.854;174.870;2022-11-11T09:03:32;0.80;;;0.80;;
19643;SDS011;9970;-36.854;174.870;2022-11-11T09:06:05;0.80;;;0.80;;
19643;SDS011;9970;-36.854;174.870;2022-11-11T09:08:40;0.80;;;0.80;;
19643;SDS011;9970;-36.854;174.870;2022-11-11T09:11:12;0.80;;;0.80;;
19643;SDS011;9970;-36.854;174.870;2022-11-11T09:13:48;0.80;;;0.80;;
19643;SDS011;9970;-36.854;174.870;2022-11-11T09:16:28;0.80;;;0.80;;
19643;SDS011;9970;-36.854;174.870;2022-11-11T09:19:02;0.80;;;0.80;;
19643;SDS011;9970;-36.854;174.870;2022-11-11T09:21:35;0.80;;;0.80;;
19643;SDS011;9970;-36.854;174.870;2022-11-11T09:24:08;0.80;;;0.80;;
19643;SDS011;9970;-36.854;174.870;2022-11-11T09:26:50;0.80;;;0.80;;
19643;SDS011;9970;-36.854;174.870;2022-11-11T09:29:19;0.80;;;0.80;;
19643;SDS011;9970;-36.854;174.870;2022-11-11T09:31:52;0.80;;;0.80;;
19643;SDS011;9970;-36.854;174.870;2022-11-11T09:34:26;0.80;;;0.80;;
19643;SDS011;9970;-36.854;174.870;2022-11-11T09:37:00;0.77;;;0.77;;
19643;SDS011;9970;-36.854;174.870;2022-11-11T09:39:37;0.80;;;0.80;;
19643;SDS011;9970;-36.854;174.870;2022-11-11T09:47:59;0.80;;;0.80;;
19643;SDS011;9970;-36.854;174.870;2022-11-11T09:50:52;0.80;;;0.80;;
19643;SDS011;9970;-36.854;174.870;2022-11-11T09:53:37;0.80;;;0.80;;
19643;SDS011;9970;-36.854;174.870;2022-11-11T09:56:17;0.80;;;0.80;;
19643;SDS011;9970;-36.854;174.870;2022-11-11T09:58:56;0.70;;;0.70;;
19643;SDS011;9970;-36.854;174.870;2022-11-11T10:01:37;0.80;;;0.80;;
19643;SDS011;9970;-36.854;174.870;2022-11-11T10:04:21;0.73;;;0.73;;
19643;SDS011;9970;-36.854;174.870;2022-11-11T10:06:52;0.80;;;0.80;;
19643;SDS011;9970;-36.854;174.870;2022-11-11T10:09:35;0.80;;;0.80;;
19643;SDS011;9970;-36.854;174.870;2022-11-11T10:12:15;0.80;;;0.80;;
19643;SDS011;9970;-36.854;174.870;2022-11-11T10:14:45;0.80;;;0.80;;
19643;SDS011;9970;-36.854;174.870;2022-11-11T10:20:28;0.70;;;0.70;;
19643;SDS011;9970;-36.854;174.870;2022-11-11T10:25:53;0.80;;;0.80;;
19643;SDS011;9970;-36.854;174.870;2022-11-11T10:28:31;0.80;;;0.80;;
19643;SDS011;9970;-36.854;174.870;2022-11-11T10:31:01;0.80;;;0.80;;
19643;SDS011;9970;-36.854;174.870;2022-11-11T10:36:23;0.80;;;0.80;;
19643;SDS011;9970;-36.854;174.870;2022-11-11T10:39:02;0.80;;;0.80;;
19643;SDS011;9970;-36.854;174.870;2022-11-11T10:41:37;0.80;;;0.80;;
19643;SDS011;9970;-36.854;174.870;2022-11-11T10:44:20;0.80;;;0.80;;
19643;SDS011;9970;-36.854;174.870;2022-11-11T10:47:02;0.80;;;0.80;;
19643;SDS011;9970;-36.854;174.870;2022-11-11T10:49:40;0.80;;;0.80;;
19643;SDS011;9970;-36.854;174.870;2022-11-11T10:52:15;0.80;;;0.80;;
19643;SDS011;9970;-36.854;174.870;2022-11-11T10:57:50;0.80;;;0.80;;
19643;SDS011;9970;-36.854;174.870;2022-11-11T11:00:30;0.80;;;0.80;;
19643;SDS011;9970;-36.854;174.870;2022-11-11T11:05:48;0.80;;;0.80;;
19643;SDS011;9970;-36.854;174.870;2022-11-11T11:08:25;0.80;;;0.80;;
19643;SDS011;9970;-36.854;174.870;2022-11-11T11:11:02;0.80;;;0.80;;
19643;SDS011;9970;-36.854;174.870;2022-11-11T11:13:47;0.80;;;0.80;;
19643;SDS011;9970;-36.854;174.870;2022-11-11T11:16:32;0.80;;;0.80;;
19643;SDS011;9970;-36.854;174.870;2022-11-11T11:19:18;0.80;;;0.80;;
19643;SDS011;9970;-36.854;174.870;2022-11-11T11:21:56;0.70;;;0.70;;
19643;SDS011;9970;-36.854;174.870;2022-11-11T11:24:33;0.80;;;0.80;;
19643;SDS011;9970;-36.854;174.870;2022-11-11T11:27:08;0.80;;;0.80;;
19643;SDS011;9970;-36.854;174.870;2022-11-11T11:29:41;0.70;;;0.70;;
19643;SDS011;9970;-36.854;174.870;2022-11-11T11:32:18;0.80;;;0.80;;
19643;SDS011;9970;-36.854;174.870;2022-11-11T11:34:52;0.80;;;0.80;;
19643;SDS011;9970;-36.854;174.870;2022-11-11T11:37:29;0.70;;;0.70;;
19643;SDS011;9970;-36.854;174.870;2022-11-11T11:40:04;0.80;;;0.80;;
19643;SDS011;9970;-36.854;174.870;2022-11-11T11:42:37;0.70;;;0.70;;
19643;SDS011;9970;-36.854;174.870;2022-11-11T11:45:19;0.70;;;0.70;;
19643;SDS011;9970;-36.854;174.870;2022-11-11T11:50:55;0.80;;;0.80;;
19643;SDS011;9970;-36.854;174.870;2022-11-11T11:56:48;0.77;;;0.77;;
19643;SDS011;9970;-36.854;174.870;2022-11-11T12:01:43;0.80;;;0.80;;
19643;SDS011;9970;-36.854;174.870;2022-11-11T12:15:38;0.80;;;0.80;;
19643;SDS011;9970;-36.854;174.870;2022-11-11T12:21:14;0.80;;;0.80;;
19643;SDS011;9970;-36.854;174.870;2022-11-11T12:26:36;0.80;;;0.80;;
19643;SDS011;9970;-36.854;174.870;2022-11-11T12:34:44;0.80;;;0.80;;
19643;SDS011;9970;-36.854;174.870;2022-11-11T12:43:14;0.90;;;0.90;;
19643;SDS011;9970;-36.854;174.870;2022-11-11T12:48:35;0.80;;;0.80;;
19643;SDS011;9970;-36.854;174.870;2022-11-11T13:02:53;0.90;;;0.90;;
19643;SDS011;9970;-36.854;174.870;2022-11-11T13:05:28;0.80;;;0.80;;
19643;SDS011;9970;-36.854;174.870;2022-11-11T13:08:16;0.90;;;0.90;;
19643;SDS011;9970;-36.854;174.870;2022-11-11T13:10:57;0.90;;;0.90;;
19643;SDS011;9970;-36.854;174.870;2022-11-11T13:13:46;0.80;;;0.80;;
19643;SDS011;9970;-36.854;174.870;2022-11-11T13:16:25;0.80;;;0.80;;
19643;SDS011;9970;-36.854;174.870;2022-11-11T13:19:02;0.90;;;0.90;;
19643;SDS011;9970;-36.854;174.870;2022-11-11T13:21:52;0.90;;;0.90;;
19643;SDS011;9970;-36.854;174.870;2022-11-11T13:24:26;0.90;;;0.90;;
19643;SDS011;9970;-36.854;174.870;2022-11-11T13:27:02;0.90;;;0.90;;
19643;SDS011;9970;-36.854;174.870;2022-11-11T13:32:11;0.90;;;0.90;;
19643;SDS011;9970;-36.854;174.870;2022-11-11T13:34:45;0.87;;;0.87;;
19643;SDS011;9970;-36.854;174.870;2022-11-11T13:37:24;0.80;;;0.80;;
19643;SDS011;9970;-36.854;174.870;2022-11-11T13:40:21;0.80;;;0.80;;
19643;SDS011;9970;-36.854;174.870;2022-11-11T13:42:40;0.90;;;0.90;;
19643;SDS011;9970;-36.854;174.870;2022-11-11T13:45:27;0.80;;;0.80;;
19643;SDS011;9970;-36.854;174.870;2022-11-11T13:48:18;0.90;;;0.90;;
19643;SDS011;9970;-36.854;174.870;2022-11-11T13:50:48;0.90;;;0.90;;
19643;SDS011;9970;-36.854;174.870;2022-11-11T13:53:31;0.90;;;0.90;;
19643;SDS011;9970;-36.854;174.870;2022-11-11T13:56:07;0.90;;;0.90;;
19643;SDS011;9970;-36.854;174.870;2022-11-11T13:58:41;0.90;;;0.90;;
19643;SDS011;9970;-36.854;174.870;2022-11-11T14:01:15;0.90;;;0.90;;
19643;SDS011;9970;-36.854;174.870;2022-11-11T14:12:33;0.80;;;0.80;;
19643;SDS011;9970;-36.854;174.870;2022-11-11T14:15:31;0.90;;;0.90;;
19643;SDS011;9970;-36.854;174.870;2022-11-11T14:17:58;0.80;;;0.80;;
19643;SDS011;9970;-36.854;174.870;2022-11-11T14:20:38;0.80;;;0.80;;
19643;SDS011;9970;-36.854;174.870;2022-11-11T14:23:57;0.80;;;0.80;;
19643;SDS011;9970;-36.854;174.870;2022-11-11T14:31:32;0.90;;;0.90;;
19643;SDS011;9970;-36.854;174.870;2022-11-11T14:37:08;0.90;;;0.90;;
19643;SDS011;9970;-36.854;174.870;2022-11-11T14:39:36;0.90;;;0.90;;
19643;SDS011;9970;-36.854;174.870;2022-11-11T14:48:05;0.90;;;0.90;;
19643;SDS011;9970;-36.854;174.870;2022-11-11T14:50:40;0.90;;;0.90;;
19643;SDS011;9970;-36.854;174.870;2022-11-11T14:53:16;0.90;;;0.90;;
19643;SDS011;9970;-36.854;174.870;2022-11-11T14:55:53;1.00;;;1.00;;
19643;SDS011;9970;-36.854;174.870;2022-11-11T14:58:31;0.90;;;0.90;;
19643;SDS011;9970;-36.854;174.870;2022-11-11T15:03:49;0.80;;;0.80;;
19643;SDS011;9970;-36.854;174.870;2022-11-11T15:23:30;0.80;;;0.80;;
19643;SDS011;9970;-36.854;174.870;2022-11-11T15:26:10;0.80;;;0.80;;
19643;SDS011;9970;-36.854;174.870;2022-11-11T15:29:01;0.80;;;0.80;;
19643;SDS011;9970;-36.854;174.870;2022-11-11T15:36:58;0.90;;;0.90;;
19643;SDS011;9970;-36.854;174.870;2022-11-11T15:39:37;0.80;;;0.80;;
19643;SDS011;9970;-36.854;174.870;2022-11-11T15:42:17;0.80;;;0.80;;
19643;SDS011;9970;-36.854;174.870;2022-11-11T15:44:45;0.90;;;0.90;;
19643;SDS011;9970;-36.854;174.870;2022-11-11T15:47:18;0.80;;;0.80;;
19643;SDS011;9970;-36.854;174.870;2022-11-11T15:49:53;0.90;;;0.90;;
19643;SDS011;9970;-36.854;174.870;2022-11-11T15:52:27;0.90;;;0.90;;
19643;SDS011;9970;-36.854;174.870;2022-11-11T15:55:08;0.90;;;0.90;;
19643;SDS011;9970;-36.854;174.870;2022-11-11T15:57:36;0.90;;;0.90;;
19643;SDS011;9970;-36.854;174.870;2022-11-11T16:00:28;0.90;;;0.90;;
19643;SDS011;9970;-36.854;174.870;2022-11-11T16:02:56;0.90;;;0.90;;
19643;SDS011;9970;-36.854;174.870;2022-11-11T16:05:29;0.90;;;0.90;;
19643;SDS011;9970;-36.854;174.870;2022-11-11T16:08:06;0.90;;;0.90;;
19643;SDS011;9970;-36.854;174.870;2022-11-11T16:10:44;0.90;;;0.90;;
19643;SDS011;9970;-36.854;174.870;2022-11-11T16:13:20;0.90;;;0.90;;
19643;SDS011;9970;-36.854;174.870;2022-11-11T16:18:45;0.90;;;0.90;;
19643;SDS011;9970;-36.854;174.870;2022-11-11T16:21:20;0.90;;;0.90;;
19643;SDS011;9970;-36.854;174.870;2022-11-11T16:23:55;0.80;;;0.80;;
19643;SDS011;9970;-36.854;174.870;2022-11-11T16:26:31;0.90;;;0.90;;
19643;SDS011;9970;-36.854;174.870;2022-11-11T16:29:03;0.80;;;0.80;;
19643;SDS011;9970;-36.854;174.870;2022-11-11T16:31:38;0.90;;;0.90;;
19643;SDS011;9970;-36.854;174.870;2022-11-11T16:37:06;0.90;;;0.90;;
19643;SDS011;9970;-36.854;174.870;2022-11-11T16:39:42;0.90;;;0.90;;
19643;SDS011;9970;-36.854;174.870;2022-11-11T16:42:25;0.80;;;0.80;;
19643;SDS011;9970;-36.854;174.870;2022-11-11T16:45:04;0.80;;;0.80;;
19643;SDS011;9970;-36.854;174.870;2022-11-11T16:47:40;0.80;;;0.80;;
19643;SDS011;9970;-36.854;174.870;2022-11-11T16:50:19;0.80;;;0.80;;
19643;SDS011;9970;-36.854;174.870;2022-11-11T16:52:57;0.90;;;0.90;;
19643;SDS011;9970;-36.854;174.870;2022-11-11T16:55:36;0.80;;;0.80;;
19643;SDS011;9970;-36.854;174.870;2022-11-11T16:58:14;0.80;;;0.80;;
19643;SDS011;9970;-36.854;174.870;2022-11-11T17:00:48;0.90;;;0.90;;
19643;SDS011;9970;-36.854;174.870;2022-11-11T17:03:22;0.80;;;0.80;;
19643;SDS011;9970;-36.854;174.870;2022-11-11T17:08:40;0.83;;;0.83;;
19643;SDS011;9970;-36.854;174.870;2022-11-11T17:14:12;0.80;;;0.80;;
19643;SDS011;9970;-36.854;174.870;2022-11-11T17:16:45;0.80;;;0.80;;
19643;SDS011;9970;-36.854;174.870;2022-11-11T17:19:18;0.90;;;0.90;;
19643;SDS011;9970;-36.854;174.870;2022-11-11T17:21:51;0.80;;;0.80;;
19643;SDS011;9970;-36.854;174.870;2022-11-11T17:24:24;0.80;;;0.80;;
19643;SDS011;9970;-36.854;174.870;2022-11-11T17:26:58;0.90;;;0.90;;
19643;SDS011;9970;-36.854;174.870;2022-11-11T17:29:31;0.80;;;0.80;;